KLEW

Auburn/Lewiston Municipal Airport

Auburn/Lewiston, Maine, USA
METAR KLEW 170156Z AUTO 29007KT 10SM CLR M08/M14 A3005 RMK AO2 SLP193 T10781139 FZRANO
Observed Flight Rules
Dec-17 @ 01:56 UTC (35 minutes ago) Visual Flight Rules
Wind Visibility Clouds
290° at 7 knots 10 miles
  • Clear skies
Temperatures Readings
Current -8°C / 18°F
Dewpoint -14°C / 7°F
Humidity 62%
Altimeter 30.05" Hg
Pressure 1019.3 hPa
Elevation 88
METAR KLEW 170156Z AUTO 29007KT 10SM CLR M08/M14 A3005 RMK AO2 SLP193 T10781139 FZRANO
Observed Flight Rules
Dec-17 @ 01:56 UTC
(35 minutes ago)
VFR
Wind Visibility
290° at 7 knots 10 miles
Clouds
  • Clear skies
Temperature Dewpoint
-8°C / 18°F -14°C / 7°F
Humidity Altimeter Pressure
62% 30.05" Hg 1019.3 hPa